Time;durP1;ratioP1;P1;durP2;ratioP2;P2;SDS_P1;SDS_P2;PMS_P1;PMS_P2;Temp;Humidity;BMP_temperature;BMP_pressure;BME280_temperature;BME280_humidity;BME280_pressure;Samples;Min_cycle;Max_cycle;Signal;HPM_P1;HPM_P2
2022/07/17 00:00:15;;;;;;;2.17;1.50;;;;;;;11.07;94.40;102910.69;5092418;28;20106;-72
2022/07/17 00:02:40;;;;;;;4.18;1.60;;;;;;;11.04;94.49;102900.22;5092056;28;20050;-71
2022/07/17 00:05:06;;;;;;;4.50;1.90;;;;;;;11.02;94.99;102900.31;5092823;28;20159;-71
2022/07/17 00:07:32;;;;;;;4.97;2.08;;;;;;;11.01;96.08;102895.94;5091502;28;20394;-71
2022/07/17 00:09:57;;;;;;;4.55;1.90;;;;;;;11.01;97.18;102898.59;5093149;28;20473;-71
2022/07/17 00:12:22;;;;;;;4.18;1.48;;;;;;;11.00;96.17;102907.56;5092881;28;20457;-71
2022/07/17 00:14:48;;;;;;;4.85;2.08;;;;;;;10.98;95.71;102911.25;5093146;28;20123;-71
2022/07/17 00:17:14;;;;;;;4.40;1.88;;;;;;;10.96;95.70;102910.47;5091162;28;20075;-71
2022/07/17 00:19:39;;;;;;;3.75;1.70;;;;;;;10.93;95.63;102904.38;5092916;28;20324;-71
2022/07/17 00:22:05;;;;;;;2.90;1.50;;;;;;;10.87;95.79;102902.09;5092084;28;20058;-71
2022/07/17 00:24:30;;;;;;;5.57;1.88;;;;;;;10.86;96.17;102902.19;5091404;28;20040;-70
2022/07/17 00:26:55;;;;;;;5.15;1.92;;;;;;;10.87;98.85;102893.25;5092712;28;20435;-70
2022/07/17 00:29:21;;;;;;;6.93;1.80;;;;;;;10.89;99.88;102894.00;5092336;28;20036;-71
2022/07/17 00:31:46;;;;;;;8.13;2.40;;;;;;;10.89;99.93;102883.34;5092548;28;20039;-70
2022/07/17 00:34:12;;;;;;;6.40;1.98;;;;;;;10.87;99.28;102883.44;5092166;28;20108;-71
2022/07/17 00:36:37;;;;;;;4.95;2.08;;;;;;;10.89;100.00;102883.34;5092501;28;20055;-71
2022/07/17 00:39:03;;;;;;;3.90;1.80;;;;;;;10.87;100.00;102880.78;5092785;28;20028;-70
2022/07/17 00:41:29;;;;;;;6.03;2.00;;;;;;;10.82;100.00;102882.00;5092008;28;20473;-71
2022/07/17 00:43:54;;;;;;;9.60;2.00;;;;;;;10.80;100.00;102887.41;5092679;28;20043;-70
2022/07/17 00:46:20;;;;;;;9.48;1.80;;;;;;;10.79;100.00;102872.38;5091703;28;20099;-71
2022/07/17 00:48:46;;;;;;;7.05;2.10;;;;;;;10.81;100.00;102882.94;5091949;28;20024;-70
2022/07/17 00:51:11;;;;;;;9.07;2.10;;;;;;;10.80;100.00;102863.44;5091755;28;20024;-71
2022/07/17 00:53:37;;;;;;;4.97;2.20;;;;;;;10.84;100.00;102859.66;5092193;28;20193;-71
2022/07/17 00:56:05;;;;;;;4.35;2.20;;;;;;;10.85;100.00;102860.50;5092557;28;20464;-71
2022/07/17 00:58:34;;;;;;;5.47;2.13;;;;;;;10.84;100.00;102857.00;5090868;28;20063;-71
2022/07/17 01:00:59;;;;;;;8.15;2.40;;;;;;;10.84;100.00;102853.47;5092080;28;20372;-71
2022/07/17 01:03:26;;;;;;;5.00;2.00;;;;;;;10.82;100.00;102847.38;5091552;28;20176;-71
2022/07/17 01:05:52;;;;;;;6.25;2.38;;;;;;;10.82;100.00;102848.22;5091813;28;20111;-71
2022/07/17 01:08:17;;;;;;;5.93;2.50;;;;;;;10.81;100.00;102850.97;5091602;28;20047;-71
2022/07/17 01:10:43;;;;;;;8.25;2.40;;;;;;;10.77;100.00;102856.50;5091556;28;20583;-71
2022/07/17 01:13:08;;;;;;;5.53;2.55;;;;;;;10.75;100.00;102866.41;5091924;28;20089;-71
2022/07/17 01:15:37;;;;;;;7.10;2.38;;;;;;;10.73;100.00;102855.00;5089941;28;20427;-71
2022/07/17 01:18:07;;;;;;;6.78;2.65;;;;;;;10.73;100.00;102854.09;5091831;28;20142;-71
2022/07/17 01:20:33;;;;;;;4.53;2.72;;;;;;;10.72;100.00;102861.25;5091022;28;20057;-71
2022/07/17 01:22:58;;;;;;;7.47;2.80;;;;;;;10.67;100.00;102865.97;5091714;28;20067;-71
2022/07/17 01:25:24;;;;;;;7.35;2.65;;;;;;;10.64;100.00;102866.16;5091127;28;20044;-71
2022/07/17 01:27:49;;;;;;;3.60;2.25;;;;;;;10.56;100.00;102861.28;5091473;28;20086;-71
2022/07/17 01:30:15;;;;;;;4.50;2.20;;;;;;;10.52;100.00;102861.56;5091207;28;20074;-71
2022/07/17 01:32:41;;;;;;;7.22;2.70;;;;;;;10.52;100.00;102857.06;5091402;28;20489;-71
2022/07/17 01:35:09;;;;;;;6.55;2.55;;;;;;;10.49;100.00;102848.44;5091186;28;20444;-71
2022/07/17 01:37:35;;;;;;;3.90;2.35;;;;;;;10.46;100.00;102851.28;5091026;28;20036;-70
2022/07/17 01:40:00;;;;;;;8.48;2.90;;;;;;;10.44;100.00;102853.19;5091320;28;20089;-70
2022/07/17 01:42:27;;;;;;;7.28;2.72;;;;;;;10.39;100.00;102846.31;5090902;28;20028;-70
2022/07/17 01:44:54;;;;;;;3.80;2.50;;;;;;;10.35;100.00;102849.25;5091312;28;20434;-70
2022/07/17 01:47:21;;;;;;;4.57;2.97;;;;;;;10.33;100.00;102859.97;5090606;28;20381;-71
2022/07/17 01:49:48;;;;;;;5.60;2.58;;;;;;;10.30;100.00;102859.25;5091148;28;20147;-70
2022/07/17 01:52:14;;;;;;;10.30;3.28;;;;;;;10.27;100.00;102864.72;5090163;28;20028;-71
2022/07/17 01:54:40;;;;;;;6.75;2.55;;;;;;;10.24;100.00;102861.31;5090883;28;20059;-71
2022/07/17 01:57:05;;;;;;;4.15;2.65;;;;;;;10.20;100.00;102859.78;5091521;28;20446;-71
2022/07/17 01:59:31;;;;;;;6.97;2.60;;;;;;;10.15;100.00;102864.50;5090930;28;20050;-70
2022/07/17 02:01:56;;;;;;;3.83;1.88;;;;;;;10.09;100.00;102863.97;5091123;28;20032;-71
2022/07/17 02:04:22;;;;;;;7.10;2.92;;;;;;;10.10;100.00;102863.91;5090517;28;20063;-71
2022/07/17 02:06:47;;;;;;;7.70;2.80;;;;;;;10.10;100.00;102855.91;5091213;28;20027;-71
2022/07/17 02:09:13;;;;;;;5.43;3.03;;;;;;;10.11;100.00;102851.47;5091074;28;20048;-70
2022/07/17 02:11:38;;;;;;;8.90;3.13;;;;;;;10.10;100.00;102847.09;5090469;28;20634;-70
2022/07/17 02:14:03;;;;;;;7.88;2.80;;;;;;;10.08;100.00;102847.19;5089693;28;20039;-70
2022/07/17 02:16:29;;;;;;;5.00;2.88;;;;;;;10.02;100.00;102853.69;5090533;28;20112;-70
2022/07/17 02:18:54;;;;;;;5.57;2.72;;;;;;;9.98;100.00;102846.81;5090660;28;20036;-70
2022/07/17 02:21:20;;;;;;;11.23;3.20;;;;;;;9.96;100.00;102853.19;5090828;28;20032;-70
2022/07/17 02:23:45;;;;;;;7.90;3.33;;;;;;;9.93;100.00;102858.66;5090908;28;20038;-70
2022/07/17 02:26:10;;;;;;;4.07;2.40;;;;;;;9.89;100.00;102865.94;5090834;28;20036;-70
2022/07/17 02:28:36;;;;;;;4.50;2.40;;;;;;;9.84;100.00;102865.38;5090117;28;20028;-70
2022/07/17 02:31:01;;;;;;;7.88;2.70;;;;;;;9.80;100.00;102869.13;5090641;28;20123;-71
2022/07/17 02:33:27;;;;;;;6.63;2.45;;;;;;;9.77;100.00;102870.16;5090238;28;20032;-72
2022/07/17 02:35:52;;;;;;;6.35;3.33;;;;;;;9.76;100.00;102880.88;5091245;28;20405;-71
2022/07/17 02:38:18;;;;;;;8.98;3.28;;;;;;;9.81;100.00;102882.34;5091035;28;20082;-72
2022/07/17 02:40:43;;;;;;;6.38;3.38;;;;;;;9.81;100.00;102877.03;5089496;28;20058;-72
2022/07/17 02:43:09;;;;;;;5.00;3.33;;;;;;;9.81;100.00;102884.16;5090618;28;20036;-70
2022/07/17 02:45:34;;;;;;;4.40;2.70;;;;;;;9.79;100.00;102900.19;5090224;28;20029;-71
2022/07/17 02:48:00;;;;;;;4.25;2.88;;;;;;;9.77;100.00;102890.56;5090508;28;20554;-71
2022/07/17 02:50:25;;;;;;;7.05;3.00;;;;;;;9.69;100.00;102893.66;5090307;28;20520;-72
2022/07/17 02:52:51;;;;;;;9.68;4.18;;;;;;;9.72;100.00;102896.13;5090775;28;20497;-70
2022/07/17 02:55:18;;;;;;;6.75;3.67;;;;;;;9.72;100.00;102890.81;5090734;28;20028;-71
2022/07/17 02:57:46;;;;;;;7.68;3.53;;;;;;;9.67;100.00;102891.06;5090111;28;20036;-71
2022/07/17 03:00:15;;;;;;;5.28;3.03;;;;;;;9.62;100.00;102898.41;5090511;28;20521;-71
2022/07/17 03:02:41;;;;;;;5.93;2.90;;;;;;;9.61;100.00;102891.38;5088843;28;20388;-71
2022/07/17 03:05:07;;;;;;;7.28;3.65;;;;;;;9.59;100.00;102887.97;5090514;28;20029;-71
2022/07/17 03:07:33;;;;;;;8.07;3.00;;;;;;;9.59;100.00;102889.75;5090035;28;20113;-71
2022/07/17 03:09:58;;;;;;;5.75;3.00;;;;;;;9.57;100.00;102886.31;5090688;28;20062;-71
2022/07/17 03:12:23;;;;;;;6.72;3.33;;;;;;;9.57;100.00;102888.97;5089264;28;20444;-70
2022/07/17 03:14:49;;;;;;;10.30;4.50;;;;;;;9.62;100.00;102881.63;5088714;28;20036;-71
2022/07/17 03:17:14;;;;;;;8.70;3.10;;;;;;;9.58;100.00;102890.69;5090348;28;20028;-71
2022/07/17 03:19:40;;;;;;;6.72;3.50;;;;;;;9.52;100.00;102884.78;5090133;28;20093;-71
2022/07/17 03:22:05;;;;;;;12.10;4.97;;;;;;;9.55;100.00;102886.41;5093638;28;20031;-71
2022/07/17 03:24:30;;;;;;;12.05;4.60;;;;;;;9.60;100.00;102894.13;5093947;28;20028;-69
2022/07/17 03:26:57;;;;;;;9.20;3.90;;;;;;;9.53;100.00;102891.78;5093723;28;20086;-70
2022/07/17 03:29:22;;;;;;;6.07;3.53;;;;;;;9.47;100.00;102885.97;5093869;28;20127;-70
2022/07/17 03:31:47;;;;;;;8.50;3.80;;;;;;;9.47;100.00;102880.66;5093321;28;20059;-71
2022/07/17 03:34:13;;;;;;;10.00;4.85;;;;;;;9.50;100.00;102873.34;5093953;28;20032;-70
2022/07/17 03:36:39;;;;;;;12.02;5.15;;;;;;;9.56;100.00;102868.66;5093451;28;20130;-71
2022/07/17 03:39:06;;;;;;;8.40;4.82;;;;;;;9.57;100.00;102868.59;5093828;28;20450;-71
2022/07/17 03:41:31;;;;;;;10.27;4.80;;;;;;;9.55;100.00;102877.56;5091590;28;20046;-72
2022/07/17 03:43:56;;;;;;;9.52;4.18;;;;;;;9.52;100.00;102884.78;5093667;28;20096;-70
2022/07/17 03:46:22;;;;;;;7.88;4.80;;;;;;;9.46;100.00;102879.78;5092178;28;20032;-70
2022/07/17 03:48:47;;;;;;;9.38;4.00;;;;;;;9.44;100.00;102873.69;5092738;28;20120;-70
2022/07/17 03:51:13;;;;;;;12.45;4.97;;;;;;;9.45;100.00;102880.72;5093822;28;20032;-71
2022/07/17 03:53:38;;;;;;;7.80;4.43;;;;;;;9.46;100.00;102886.91;5092893;28;20082;-71
2022/07/17 03:56:04;;;;;;;6.97;4.45;;;;;;;9.45;100.00;102880.72;5093487;28;20451;-70
2022/07/17 03:58:30;;;;;;;7.57;4.50;;;;;;;9.50;100.00;102889.31;5093302;28;20032;-70
2022/07/17 04:00:56;;;;;;;8.38;5.00;;;;;;;9.52;100.00;102883.91;5092780;28;20047;-70
2022/07/17 04:03:21;;;;;;;5.75;4.00;;;;;;;9.51;100.00;102892.84;5093110;28;20028;-71
2022/07/17 04:05:47;;;;;;;12.05;5.60;;;;;;;9.54;100.00;102900.66;5092957;28;20043;-71
2022/07/17 04:08:15;;;;;;;10.75;5.70;;;;;;;9.58;100.00;102907.50;5093265;28;20071;-71
2022/07/17 04:10:40;;;;;;;13.20;5.28;;;;;;;9.59;100.00;102898.59;5092713;28;20465;-71
2022/07/17 04:13:05;;;;;;;10.13;5.00;;;;;;;9.61;100.00;102896.69;5092960;28;20043;-71
2022/07/17 04:15:49;;;;;;;10.05;5.10;;;;;;;9.65;100.00;102890.28;5092807;28;20043;-71
2022/07/17 04:18:18;;;;;;;8.85;4.70;;;;;;;9.68;100.00;102894.56;5093171;28;20032;-71
2022/07/17 04:20:43;;;;;;;7.28;4.63;;;;;;;9.71;100.00;102902.38;5092587;28;20028;-71
2022/07/17 04:23:09;;;;;;;7.55;5.30;;;;;;;9.73;100.00;102905.81;5092967;28;20428;-71
2022/07/17 04:25:35;;;;;;;9.30;4.88;;;;;;;9.71;100.00;102902.38;5092970;28;20024;-71
2022/07/17 04:28:00;;;;;;;6.65;4.90;;;;;;;9.74;100.00;102901.38;5092158;28;20036;-71
2022/07/17 04:30:26;;;;;;;10.27;5.97;;;;;;;9.78;100.00;102890.47;5092253;28;20024;-71
2022/07/17 04:32:52;;;;;;;8.68;4.40;;;;;;;9.85;100.00;102893.66;5092053;28;20067;-71
2022/07/17 04:35:17;;;;;;;10.00;4.32;;;;;;;9.89;100.00;102897.88;5092456;28;20044;-70
2022/07/17 04:37:43;;;;;;;8.30;4.45;;;;;;;9.91;100.00;102900.44;5090731;28;20042;-71
2022/07/17 04:40:09;;;;;;;8.65;3.88;;;;;;;9.90;100.00;102896.94;5092334;28;20085;-71
2022/07/17 04:42:34;;;;;;;7.32;4.38;;;;;;;9.89;100.00;102893.38;5092281;28;20487;-70
2022/07/17 04:44:59;;;;;;;6.15;4.47;;;;;;;9.93;100.00;102885.25;5091679;28;20036;-70
2022/07/17 04:47:25;;;;;;;6.07;3.72;;;;;;;9.96;100.00;102893.09;5092068;28;20182;-71
2022/07/17 04:49:50;;;;;;;6.95;3.80;;;;;;;10.00;100.00;102897.25;5091781;28;20398;-71
2022/07/17 04:52:15;;;;;;;8.00;4.07;;;;;;;10.07;100.00;102895.97;5092372;28;20377;-70
2022/07/17 04:54:41;;;;;;;7.05;4.30;;;;;;;10.13;100.00;102892.13;5091779;28;20149;-71
2022/07/17 04:57:06;;;;;;;7.03;3.60;;;;;;;10.17;100.00;102897.19;5092048;28;20341;-71
2022/07/17 04:59:32;;;;;;;4.10;2.95;;;;;;;10.21;100.00;102900.53;5092076;28;20436;-71
2022/07/17 05:01:57;;;;;;;4.35;3.15;;;;;;;10.28;100.00;102895.72;5091512;28;20043;-70
2022/07/17 05:04:22;;;;;;;6.07;4.28;;;;;;;10.34;100.00;102888.28;5092064;28;20046;-71
2022/07/17 05:06:48;;;;;;;9.93;3.95;;;;;;;10.41;100.00;102896.78;5091543;28;20132;-71
2022/07/17 05:09:13;;;;;;;4.78;3.70;;;;;;;10.44;100.00;102890.44;5092070;28;20074;-71
2022/07/17 05:11:38;;;;;;;6.82;4.70;;;;;;;10.49;100.00;102885.69;5092113;28;20043;-70
2022/07/17 05:14:04;;;;;;;10.40;5.50;;;;;;;10.53;100.00;102888.09;5091373;28;20082;-70
2022/07/17 05:16:29;;;;;;;6.30;4.40;;;;;;;10.57;100.00;102892.28;5092076;28;20525;-71
2022/07/17 05:18:55;;;;;;;8.63;4.40;;;;;;;10.61;100.00;102903.59;5091469;28;20040;-71
2022/07/17 05:21:20;;;;;;;7.00;4.13;;;;;;;10.65;100.00;102897.16;5091811;28;20089;-71
2022/07/17 05:23:45;;;;;;;4.55;3.58;;;;;;;10.69;100.00;102897.81;5091579;28;20046;-71
2022/07/17 05:26:11;;;;;;;4.38;3.42;;;;;;;10.71;100.00;102901.28;5091701;28;20498;-71
2022/07/17 05:28:36;;;;;;;5.78;4.30;;;;;;;10.76;100.00;102907.19;5091397;28;20314;-71
2022/07/17 05:31:02;;;;;;;6.00;3.85;;;;;;;10.82;100.00;102901.50;5089957;28;20036;-71
2022/07/17 05:33:27;;;;;;;5.40;3.15;;;;;;;10.90;100.00;102909.06;5091665;28;20035;-71
2022/07/17 05:35:53;;;;;;;7.45;3.58;;;;;;;10.99;100.00;102902.28;5091217;28;20035;-71
2022/07/17 05:38:18;;;;;;;5.38;4.10;;;;;;;11.08;100.00;102902.63;5089982;28;20676;-71
2022/07/17 05:40:43;;;;;;;6.85;3.90;;;;;;;11.22;100.00;102906.25;5091816;28;20032;-71
2022/07/17 05:43:09;;;;;;;10.43;3.97;;;;;;;11.33;100.00;102906.47;5091294;28;20088;-71
2022/07/17 05:45:34;;;;;;;7.47;4.05;;;;;;;11.43;100.00;102912.09;5092376;28;20114;-71
2022/07/17 05:47:59;;;;;;;8.35;3.55;;;;;;;11.52;100.00;102910.66;5091797;28;20036;-71
2022/07/17 05:50:25;;;;;;;14.25;3.40;;;;;;;11.65;100.00;102914.28;5092180;28;20157;-71
2022/07/17 05:52:50;;;;;;;9.70;2.90;;;;;;;11.79;100.00;102914.28;5091935;28;20063;-71
2022/07/17 05:55:16;;;;;;;7.00;3.15;;;;;;;11.93;100.00;102912.59;5092186;28;20032;-71
2022/07/17 05:57:41;;;;;;;7.50;2.40;;;;;;;12.09;100.00;102908.00;5092162;28;20180;-71
2022/07/17 06:00:07;;;;;;;8.15;2.42;;;;;;;12.27;100.00;102913.94;5090469;28;20059;-71
2022/07/17 06:02:33;;;;;;;7.30;2.38;;;;;;;12.46;100.00;102921.59;5092542;28;20035;-71
2022/07/17 06:04:58;;;;;;;6.05;2.20;;;;;;;12.60;100.00;102919.81;5091789;28;20046;-71
2022/07/17 06:07:24;;;;;;;4.60;2.30;;;;;;;12.78;100.00;102926.63;5091412;28;20060;-71
2022/07/17 06:09:49;;;;;;;4.22;1.88;;;;;;;12.97;100.00;102933.41;5091704;28;20032;-72
2022/07/17 06:12:15;;;;;;;6.28;1.77;;;;;;;13.16;100.00;102936.53;5092047;28;20032;-71
2022/07/17 06:14:40;;;;;;;6.85;2.00;;;;;;;13.33;100.00;102935.38;5091774;28;20040;-71
2022/07/17 06:17:05;;;;;;;5.18;1.88;;;;;;;13.51;97.89;102943.09;5091682;28;20374;-71
2022/07/17 06:19:31;;;;;;;5.20;1.83;;;;;;;13.71;96.88;102941.72;5092049;28;20085;-71
2022/07/17 06:21:56;;;;;;;6.38;2.05;;;;;;;13.85;94.80;102946.06;5090515;28;20024;-71
2022/07/17 06:24:21;;;;;;;7.28;2.10;;;;;;;14.02;93.29;102944.88;5090862;28;20035;-71
2022/07/17 06:26:46;;;;;;;6.50;1.92;;;;;;;14.15;90.61;102947.50;5090765;28;20039;-71
2022/07/17 06:29:12;;;;;;;5.50;1.77;;;;;;;14.31;90.51;102942.75;5090420;28;20062;-71
2022/07/17 06:31:37;;;;;;;6.32;1.80;;;;;;;14.51;90.28;102941.31;5091064;28;20424;-71
2022/07/17 06:34:03;;;;;;;7.93;1.52;;;;;;;14.71;89.50;102950.56;5090556;28;20036;-71
2022/07/17 06:36:28;;;;;;;6.25;1.48;;;;;;;14.94;87.09;102956.88;5091082;28;20064;-71
2022/07/17 06:38:53;;;;;;;2.92;1.40;;;;;;;15.16;86.90;102950.69;5090477;28;20095;-72
2022/07/17 06:41:19;;;;;;;3.47;1.45;;;;;;;15.29;81.84;102952.47;5090842;28;20177;-72
2022/07/17 06:43:44;;;;;;;9.10;1.40;;;;;;;15.33;80.42;102954.78;5089290;28;20477;-72
2022/07/17 06:46:10;;;;;;;5.85;1.60;;;;;;;15.40;79.96;102951.63;5090502;28;20119;-72
2022/07/17 06:48:35;;;;;;;5.95;1.55;;;;;;;15.62;79.54;102950.78;5090702;28;20029;-72
2022/07/17 06:51:00;;;;;;;7.15;1.80;;;;;;;15.78;78.50;102947.75;5090172;28;20438;-72
2022/07/17 06:53:25;;;;;;;5.50;1.83;;;;;;;15.91;79.01;102953.84;5090286;28;20446;-71
2022/07/17 06:55:51;;;;;;;5.60;1.40;;;;;;;15.96;76.72;102953.47;5091527;28;20070;-71
2022/07/17 06:58:16;;;;;;;8.80;1.92;;;;;;;16.00;77.63;102957.63;5093686;28;20080;-73
2022/07/17 07:00:42;;;;;;;7.93;2.15;;;;;;;16.08;78.27;102952.53;5094585;28;20044;-72
2022/07/17 07:03:07;;;;;;;3.75;1.60;;;;;;;16.24;78.10;102964.69;5094562;28;20032;-72
2022/07/17 07:05:33;;;;;;;7.03;1.98;;;;;;;16.30;77.00;102962.38;5095321;28;20415;-71
2022/07/17 07:07:59;;;;;;;9.13;1.65;;;;;;;16.40;76.67;102952.56;5094692;28;20063;-72
2022/07/17 07:10:24;;;;;;;7.20;1.50;;;;;;;16.52;75.46;102960.59;5094918;28;20035;-72
2022/07/17 07:12:49;;;;;;;6.47;1.80;;;;;;;16.63;74.27;102954.31;5094560;28;20040;-73
2022/07/17 07:15:15;;;;;;;5.45;1.60;;;;;;;16.80;73.71;102961.00;5094265;28;20036;-72
2022/07/17 07:17:41;;;;;;;5.72;1.50;;;;;;;16.97;72.24;102962.28;5094851;28;20078;-72
2022/07/17 07:20:07;;;;;;;3.72;1.23;;;;;;;17.13;71.88;102965.38;5094279;28;20040;-73
2022/07/17 07:22:33;;;;;;;9.90;1.50;;;;;;;17.28;70.53;102957.84;5094447;28;20442;-72
2022/07/17 07:24:59;;;;;;;6.15;1.35;;;;;;;17.51;71.39;102958.56;5090195;28;20032;-75
2022/07/17 07:27:24;;;;;;;4.65;1.40;;;;;;;17.66;70.77;102950.97;5094638;28;20081;-73
2022/07/17 07:29:49;;;;;;;3.50;1.10;;;;;;;17.74;68.20;102953.00;5092736;28;20028;-75
2022/07/17 07:32:15;;;;;;;6.72;1.48;;;;;;;17.92;68.98;102946.00;5093876;28;20115;-75
2022/07/17 07:34:41;;;;;;;7.20;1.95;;;;;;;18.08;67.03;102942.78;5094217;28;20044;-75
2022/07/17 07:37:06;;;;;;;4.32;1.42;;;;;;;18.28;65.47;102940.97;5093459;28;20035;-76
2022/07/17 07:39:32;;;;;;;3.15;1.40;;;;;;;18.50;64.18;102939.03;5093852;28;20064;-75
2022/07/17 07:41:57;;;;;;;5.18;1.40;;;;;;;18.51;62.72;102946.09;5094444;28;20407;-74
2022/07/17 07:44:23;;;;;;;6.60;1.58;;;;;;;18.55;62.46;102944.84;5093980;28;20038;-74
2022/07/17 07:46:48;;;;;;;7.60;1.40;;;;;;;18.68;62.03;102942.72;5093933;28;20477;-74
2022/07/17 07:49:14;;;;;;;5.50;1.40;;;;;;;18.78;61.47;102942.75;5093510;28;20067;-87
2022/07/17 07:51:40;;;;;;;3.72;1.40;;;;;;;18.83;62.15;102945.84;5092973;28;20130;-85
2022/07/17 07:54:05;;;;;;;6.22;1.48;;;;;;;18.91;62.04;102936.22;5093498;28;20119;-86
2022/07/17 07:56:31;;;;;;;7.05;1.83;;;;;;;19.02;60.72;102931.53;5093871;28;20036;-80
2022/07/17 07:58:57;;;;;;;6.72;1.52;;;;;;;19.19;60.45;102937.19;5092497;28;20426;-86
2022/07/17 08:01:22;;;;;;;6.53;1.45;;;;;;;19.37;59.91;102929.19;5092626;28;20036;-84
2022/07/17 08:03:48;;;;;;;4.75;1.63;;;;;;;19.56;59.19;102933.66;5093739;28;20370;-82
2022/07/17 08:06:14;;;;;;;3.53;1.05;;;;;;;19.71;59.11;102934.88;5093189;28;20380;-84
2022/07/17 08:08:40;;;;;;;3.80;1.50;;;;;;;19.82;58.83;102924.91;5094091;28;20052;-79
2022/07/17 08:11:05;;;;;;;3.83;1.33;;;;;;;20.04;55.24;102924.50;5092482;28;20063;-82
2022/07/17 08:13:31;;;;;;;7.38;1.30;;;;;;;20.23;53.80;102930.78;5093682;28;20111;-81
2022/07/17 08:15:58;;;;;;;5.32;1.30;;;;;;;20.30;52.13;102926.44;5094103;28;20400;-85
2022/07/17 08:18:25;;;;;;;7.95;1.30;;;;;;;20.45;53.09;102926.78;5093915;28;20032;-83
2022/07/17 08:20:51;;;;;;;2.97;1.30;;;;;;;20.68;52.80;102916.38;5093799;28;20508;-85
2022/07/17 08:23:16;;;;;;;11.52;1.88;;;;;;;20.94;52.32;102924.56;5093285;28;20028;-83
2022/07/17 08:25:41;;;;;;;5.47;1.20;;;;;;;21.08;52.17;102925.00;5093636;28;20031;-81
2022/07/17 08:28:07;;;;;;;5.60;1.35;;;;;;;21.27;50.87;102927.47;5093526;28;20100;-85
2022/07/17 08:30:34;;;;;;;4.45;1.55;;;;;;;21.06;48.27;102927.81;5092108;28;20052;-79
2022/07/17 08:33:01;;;;;;;4.68;1.50;;;;;;;21.14;50.41;102921.66;5092124;28;20039;-84
2022/07/17 08:35:26;;;;;;;6.93;1.50;;;;;;;21.43;49.81;102920.44;5089917;28;20462;-81
2022/07/17 08:37:53;;;;;;;5.22;1.40;;;;;;;21.63;49.11;102926.50;5088607;28;20116;-82
2022/07/17 08:40:20;;;;;;;4.30;1.20;;;;;;;21.82;47.39;102917.28;5091758;28;20118;-81
2022/07/17 08:42:46;;;;;;;3.38;1.35;;;;;;;22.12;46.75;102918.53;5090192;28;20032;-83
2022/07/17 08:45:12;;;;;;;3.75;1.40;;;;;;;22.18;47.53;102919.75;5089597;28;20043;-85
2022/07/17 08:47:38;;;;;;;4.40;1.60;;;;;;;22.21;46.14;102914.00;5092985;28;20036;-84
2022/07/17 08:50:04;;;;;;;3.38;1.20;;;;;;;22.29;43.86;102916.72;5093611;28;20032;-83
2022/07/17 08:52:29;;;;;;;4.57;1.52;;;;;;;22.50;45.41;102916.28;5092700;28;20039;-79
2022/07/17 08:54:55;;;;;;;3.00;1.33;;;;;;;23.13;43.17;102913.91;5092928;28;20129;-80
2022/07/17 08:57:20;;;;;;;3.10;1.30;;;;;;;22.95;42.96;102916.78;5092075;28;20403;-83
2022/07/17 08:59:49;;;;;;;2.55;1.20;;;;;;;24.01;42.29;102922.94;5090993;28;20024;-83
2022/07/17 09:02:14;;;;;;;2.45;1.40;;;;;;;24.92;40.33;102916.88;5091189;28;20093;-80
2022/07/17 09:04:40;;;;;;;6.30;1.33;;;;;;;25.65;37.33;102912.50;5093261;28;20474;-81
2022/07/17 09:07:06;;;;;;;5.43;1.50;;;;;;;26.08;37.07;102911.78;5092844;28;20055;-83
2022/07/17 09:09:33;;;;;;;4.25;1.60;;;;;;;26.62;35.89;102906.84;5091981;28;20089;-85
2022/07/17 09:12:00;;;;;;;2.90;1.25;;;;;;;27.41;33.90;102913.97;5092954;28;20105;-83
2022/07/17 09:14:39;;;;;;;3.95;1.58;;;;;;;27.76;34.11;102912.00;5092794;28;20080;-83
2022/07/17 09:17:05;;;;;;;4.38;1.55;;;;;;;27.88;32.48;102914.19;5092952;28;20101;-80
2022/07/17 09:19:34;;;;;;;4.60;1.40;;;;;;;28.23;33.73;102919.53;5091545;28;20032;-84
2022/07/17 09:22:20;;;;;;;3.45;1.42;;;;;;;28.25;32.54;102904.63;5085098;28;20031;-78
2022/07/17 09:24:54;;;;;;;4.78;1.38;;;;;;;28.66;32.22;102911.84;5080885;28;20032;-80
2022/07/17 09:27:31;;;;;;;4.03;1.50;;;;;;;28.74;32.00;102901.69;5071125;28;20439;-82
2022/07/17 09:30:11;;;;;;;3.25;1.40;;;;;;;28.84;29.96;102905.72;5071292;28;20034;-79
2022/07/17 09:32:40;;;;;;;4.43;1.80;;;;;;;29.12;30.76;102899.13;5088710;28;20036;-82
2022/07/17 09:35:08;;;;;;;6.13;1.58;;;;;;;29.36;30.89;102903.13;5089442;28;20036;-81
2022/07/17 09:37:35;;;;;;;3.92;1.45;;;;;;;29.85;29.10;102899.97;5091558;28;20093;-81
2022/07/17 09:40:01;;;;;;;5.25;1.50;;;;;;;30.10;28.88;102894.56;5097150;28;20032;-78
2022/07/17 09:42:33;;;;;;;2.33;1.30;;;;;;;30.28;28.56;102901.19;5105178;28;20035;-77
2022/07/17 09:45:05;;;;;;;4.47;1.33;;;;;;;30.06;28.96;102904.28;5091401;28;20036;-82
2022/07/17 09:47:33;;;;;;;1.77;1.00;;;;;;;30.11;29.72;102901.69;5089717;28;20032;-81
2022/07/17 09:50:01;;;;;;;6.72;1.90;;;;;;;29.94;29.53;102893.16;5091122;28;20118;-78
2022/07/17 09:52:32;;;;;;;2.40;1.20;;;;;;;30.17;28.14;102903.59;5090847;28;20047;-82
2022/07/17 09:55:00;;;;;;;1.65;1.30;;;;;;;30.09;30.10;102903.00;5091674;28;20024;-77
2022/07/17 09:57:30;;;;;;;4.05;1.20;;;;;;;29.75;28.46;102900.41;5089787;28;20039;-79
2022/07/17 10:00:00;;;;;;;4.03;1.35;;;;;;;30.13;28.79;102902.34;5091618;28;20036;-80
2022/07/17 10:02:25;;;;;;;4.53;1.38;;;;;;;30.67;26.88;102902.78;5091154;28;20032;-80
2022/07/17 10:04:52;;;;;;;3.50;1.45;;;;;;;30.37;28.17;102906.19;5090575;28;20028;-82
2022/07/17 10:07:18;;;;;;;2.67;1.30;;;;;;;30.21;28.60;102904.81;5090250;28;20170;-80
2022/07/17 10:09:44;;;;;;;8.30;1.92;;;;;;;29.91;29.61;102907.31;5090980;28;20032;-77
2022/07/17 10:12:10;;;;;;;6.63;1.40;;;;;;;29.75;29.01;102911.38;5090523;28;20036;-80
2022/07/17 10:14:38;;;;;;;4.78;1.33;;;;;;;30.08;29.01;102921.34;5088507;28;20021;-76
2022/07/17 10:17:13;;;;;;;3.45;1.60;;;;;;;30.12;27.46;102910.81;5088203;28;20064;-79
2022/07/17 10:19:50;;;;;;;3.80;1.48;;;;;;;30.38;28.28;102913.34;5091005;28;20156;-78
2022/07/17 10:22:16;;;;;;;5.40;2.28;;;;;;;31.07;28.96;102904.34;5089333;28;20182;-80
2022/07/17 10:24:47;;;;;;;1.83;1.30;;;;;;;31.43;27.75;102913.69;5089915;28;20158;-78
2022/07/17 10:27:26;;;;;;;3.30;1.23;;;;;;;31.01;25.20;102911.59;5085724;28;20039;-78
2022/07/17 10:30:06;;;;;;;1.77;1.20;;;;;;;31.37;27.95;102915.44;5090801;28;20020;-78
2022/07/17 10:32:32;;;;;;;2.13;1.10;;;;;;;31.83;27.80;102924.19;5089781;28;20028;-78
2022/07/17 10:35:07;;;;;;;1.33;1.10;;;;;;;31.61;26.01;102916.44;5094150;28;20112;-80
2022/07/17 10:37:35;;;;;;;1.35;1.15;;;;;;;31.35;24.25;102916.72;5090988;28;20466;-78
2022/07/17 10:40:00;;;;;;;1.80;1.13;;;;;;;31.44;25.13;102916.19;5093819;28;20082;-76
2022/07/17 10:42:58;;;;;;;2.10;1.70;;;;;;;31.60;24.36;102925.75;5093384;28;20044;-76
2022/07/17 10:45:33;;;;;;;1.60;1.20;;;;;;;31.42;24.59;102920.22;5087788;28;20051;-78
2022/07/17 10:48:19;;;;;;;3.08;1.20;;;;;;;31.42;25.11;102909.22;5086111;28;20035;-76
2022/07/17 10:50:50;;;;;;;1.67;1.20;;;;;;;31.22;23.84;102902.06;5090641;28;20525;-74
2022/07/17 10:53:27;;;;;;;2.17;1.25;;;;;;;30.70;23.58;102913.34;5084734;28;20040;-77
2022/07/17 10:56:04;;;;;;;2.15;1.23;;;;;;;30.09;24.75;102917.56;5088845;28;20028;-75
2022/07/17 10:58:32;;;;;;;2.83;1.40;;;;;;;31.09;26.86;102919.53;5079141;28;20115;-75
2022/07/17 11:01:04;;;;;;;2.25;1.50;;;;;;;31.68;25.78;102924.63;5091837;28;20081;-73
2022/07/17 11:03:31;;;;;;;2.47;1.42;;;;;;;31.78;25.14;102910.28;5094429;28;20043;-75
2022/07/17 11:06:23;;;;;;;2.20;1.52;;;;;;;32.34;24.43;102905.47;5088495;28;20196;-79
2022/07/17 11:08:57;;;;;;;2.15;1.50;;;;;;;32.80;23.55;102901.09;5088568;28;21301;-75
2022/07/17 11:11:36;;;;;;;2.28;1.50;;;;;;;32.33;20.86;102904.63;5090621;28;20123;-77
2022/07/17 11:14:12;;;;;;;2.15;1.42;;;;;;;32.39;23.74;102902.84;5085690;28;20106;-77
2022/07/17 11:16:43;;;;;;;3.13;1.67;;;;;;;32.50;21.84;102906.66;5088731;28;20414;-76
2022/07/17 11:19:09;;;;;;;2.03;1.65;;;;;;;32.57;23.28;102912.91;5088792;28;20048;-77